Time;durP1;ratioP1;P1;durP2;ratioP2;P2;SDS_P1;SDS_P2;PMS_P1;PMS_P2;Temp;Humidity;BMP_temperature;BMP_pressure;BME280_temperature;BME280_humidity;BME280_pressure;Samples;Min_cycle;Max_cycle;Signal;HPM_P1;HPM_P2
2021/07/27 00:00:48;;;;;;;4.10;1.98;;;17.60;99.90;;;;;;5023636;28;20059;-76
2021/07/27 00:03:16;;;;;;;4.47;1.95;;;17.60;99.90;;;;;;5022821;28;20406;-76
2021/07/27 00:05:44;;;;;;;4.07;1.70;;;17.60;99.90;;;;;;5022888;28;20101;-77
2021/07/27 00:08:11;;;;;;;4.25;2.17;;;17.60;99.90;;;;;;5020477;28;20062;-78
2021/07/27 00:10:39;;;;;;;3.63;1.73;;;17.60;99.90;;;;;;5021924;28;20266;-78
2021/07/27 00:13:07;;;;;;;4.07;1.85;;;17.60;99.90;;;;;;5022482;28;20130;-78
2021/07/27 00:15:34;;;;;;;3.80;2.00;;;17.60;99.90;;;;;;5022704;28;20046;-77
2021/07/27 00:18:01;;;;;;;3.78;1.50;;;17.60;99.90;;;;;;5022754;28;20129;-78
2021/07/27 00:20:28;;;;;;;3.60;1.80;;;17.50;99.90;;;;;;5025679;28;20128;-78
2021/07/27 00:22:56;;;;;;;2.80;1.50;;;17.60;99.90;;;;;;5025727;28;20487;-77
2021/07/27 00:25:23;;;;;;;6.78;2.13;;;17.50;99.90;;;;;;5020331;28;20038;-78
2021/07/27 00:27:50;;;;;;;5.05;2.40;;;17.50;99.90;;;;;;5025586;28;20152;-78
2021/07/27 00:30:17;;;;;;;6.65;2.60;;;17.50;99.90;;;;;;5022850;28;20045;-78
2021/07/27 00:32:45;;;;;;;4.40;2.50;;;17.50;99.90;;;;;;5022030;28;20510;-78
2021/07/27 00:35:13;;;;;;;5.63;2.35;;;17.50;99.90;;;;;;5023347;28;20136;-78
2021/07/27 00:37:43;;;;;;;5.53;2.55;;;17.50;99.90;;;;;;5027046;28;20073;-78
2021/07/27 00:40:14;;;;;;;4.53;2.40;;;17.50;99.90;;;;;;5023032;28;20052;-77
2021/07/27 00:42:45;;;;;;;4.93;2.47;;;17.50;99.90;;;;;;5025652;28;20041;-77
2021/07/27 00:45:13;;;;;;;4.90;2.67;;;17.50;99.90;;;;;;5024028;28;20045;-78
2021/07/27 00:47:41;;;;;;;5.13;2.72;;;17.50;99.90;;;;;;5022788;28;20041;-77
2021/07/27 00:50:10;;;;;;;4.35;2.25;;;17.50;99.90;;;;;;5023805;28;20120;-77
2021/07/27 00:52:39;;;;;;;3.75;2.03;;;17.50;99.90;;;;;;5025687;28;20045;-79
2021/07/27 00:55:07;;;;;;;6.70;2.20;;;17.50;99.90;;;;;;5022245;28;20133;-77
2021/07/27 00:57:36;;;;;;;4.15;2.28;;;17.40;99.90;;;;;;5025218;28;20120;-76
2021/07/27 01:00:05;;;;;;;4.65;2.42;;;17.40;99.90;;;;;;5024925;28;20401;-76
2021/07/27 01:02:32;;;;;;;4.07;2.33;;;17.40;99.90;;;;;;5029334;28;20606;-78
2021/07/27 01:04:59;;;;;;;5.25;2.70;;;17.40;99.90;;;;;;5042360;28;20140;-79
2021/07/27 01:07:27;;;;;;;5.65;2.78;;;17.40;99.90;;;;;;5046387;28;20137;-77
2021/07/27 01:09:54;;;;;;;5.40;2.42;;;17.40;99.90;;;;;;5045214;28;20072;-78
2021/07/27 01:12:21;;;;;;;5.80;2.28;;;17.40;99.90;;;;;;5045351;28;20076;-78
2021/07/27 01:14:50;;;;;;;4.68;2.40;;;17.40;99.90;;;;;;5038172;28;20073;-78
2021/07/27 01:17:17;;;;;;;7.05;2.40;;;17.40;99.90;;;;;;5033626;28;20129;-77
2021/07/27 01:19:53;;;;;;;4.32;2.60;;;17.40;99.90;;;;;;5027510;28;20136;-78
2021/07/27 01:39:05;;;;;;;6.03;2.72;;;17.30;99.90;;;;;;5036499;28;20060;-78
2021/07/27 01:44:17;;;;;;;5.07;2.47;;;17.30;99.90;;;;;;5028987;28;20055;-77
2021/07/27 01:46:51;;;;;;;4.57;2.25;;;17.30;99.90;;;;;;5030852;28;20088;-77
2021/07/27 01:49:18;;;;;;;4.68;2.47;;;17.20;99.90;;;;;;5038653;28;20110;-77
2021/07/27 01:51:46;;;;;;;5.47;2.53;;;17.20;99.90;;;;;;5031445;28;20574;-78
2021/07/27 01:54:16;;;;;;;5.25;2.92;;;17.10;99.90;;;;;;5031777;28;20073;-77
2021/07/27 01:56:46;;;;;;;6.32;2.83;;;17.10;99.90;;;;;;5034672;28;20083;-76
2021/07/27 01:59:14;;;;;;;5.72;3.17;;;17.10;99.90;;;;;;5032280;28;20187;-77
2021/07/27 02:01:41;;;;;;;5.38;2.88;;;17.10;99.90;;;;;;5030315;28;20038;-76
2021/07/27 02:04:08;;;;;;;7.38;2.88;;;17.10;99.90;;;;;;5036608;28;20045;-76
2021/07/27 02:06:35;;;;;;;4.85;2.70;;;17.10;99.90;;;;;;5032047;28;20066;-76
2021/07/27 02:09:05;;;;;;;5.05;2.78;;;17.10;99.90;;;;;;5032614;28;20046;-76
2021/07/27 02:11:39;;;;;;;6.65;2.47;;;17.10;99.90;;;;;;5032238;28;20056;-78
2021/07/27 02:14:07;;;;;;;5.82;2.50;;;17.10;99.90;;;;;;5024770;28;20059;-78
2021/07/27 02:16:36;;;;;;;5.00;2.40;;;17.10;99.90;;;;;;5027841;28;20553;-77
2021/07/27 02:19:04;;;;;;;4.22;2.50;;;17.20;99.90;;;;;;5033728;28;20129;-78
2021/07/27 02:21:31;;;;;;;4.00;2.20;;;17.20;99.90;;;;;;5036098;28;20052;-79
2021/07/27 02:23:58;;;;;;;4.78;2.70;;;17.20;99.90;;;;;;5031129;28;20088;-78
2021/07/27 02:26:25;;;;;;;5.28;2.60;;;17.20;99.90;;;;;;5031813;28;20133;-77
2021/07/27 02:28:54;;;;;;;4.80;2.90;;;17.20;99.90;;;;;;5028702;28;20147;-78
2021/07/27 02:31:27;;;;;;;4.75;2.60;;;17.20;99.90;;;;;;5025227;28;20045;-78
2021/07/27 02:33:54;;;;;;;4.68;2.10;;;17.20;99.90;;;;;;5024045;28;20100;-77
2021/07/27 02:36:21;;;;;;;4.15;2.10;;;17.00;99.90;;;;;;5031851;28;20144;-78
2021/07/27 02:38:49;;;;;;;4.18;2.10;;;17.00;99.90;;;;;;5031675;28;20080;-78
2021/07/27 02:41:31;;;;;;;4.38;2.20;;;17.00;99.90;;;;;;5026240;28;20053;-77
2021/07/27 02:43:59;;;;;;;4.53;2.92;;;16.90;99.90;;;;;;5027966;28;20049;-78
2021/07/27 02:46:26;;;;;;;4.13;2.20;;;16.90;99.90;;;;;;5020010;28;20128;-78
2021/07/27 02:49:03;;;;;;;4.45;2.17;;;16.90;99.90;;;;;;5027719;28;20077;-78
2021/07/27 02:51:31;;;;;;;4.30;2.50;;;16.90;99.90;;;;;;5020353;28;20407;-74
2021/07/27 02:53:58;;;;;;;4.18;2.40;;;16.90;99.90;;;;;;5031033;28;20140;-76
2021/07/27 02:56:27;;;;;;;6.15;2.58;;;16.90;99.90;;;;;;5027237;28;20045;-76
2021/07/27 02:58:54;;;;;;;4.88;2.50;;;16.90;99.90;;;;;;5028107;28;20050;-77
2021/07/27 03:01:22;;;;;;;4.03;2.25;;;16.90;99.90;;;;;;5025826;28;20056;-76
2021/07/27 03:03:49;;;;;;;4.72;2.42;;;16.90;99.90;;;;;;5028783;28;20053;-78
2021/07/27 03:06:18;;;;;;;4.32;2.42;;;16.90;99.90;;;;;;5025274;28;20475;-77
2021/07/27 03:08:52;;;;;;;4.78;2.50;;;16.90;99.90;;;;;;5025160;28;20495;-77
2021/07/27 03:11:20;;;;;;;4.75;2.72;;;16.90;99.90;;;;;;5022857;28;20084;-76
2021/07/27 03:13:47;;;;;;;4.68;2.92;;;16.90;99.90;;;;;;5021478;28;20056;-78
2021/07/27 03:16:18;;;;;;;7.07;3.05;;;16.90;99.90;;;;;;5023233;28;20081;-78
2021/07/27 03:18:49;;;;;;;5.45;3.00;;;16.90;99.90;;;;;;5026839;28;20045;-77
2021/07/27 03:21:18;;;;;;;5.88;2.95;;;16.80;99.90;;;;;;5025213;28;20050;-77
2021/07/27 03:23:45;;;;;;;6.57;3.35;;;16.90;99.90;;;;;;5022519;28;20050;-78
2021/07/27 03:26:12;;;;;;;6.50;3.25;;;16.90;99.90;;;;;;5022459;28;20137;-77
2021/07/27 03:28:40;;;;;;;5.82;3.40;;;16.90;99.90;;;;;;5024106;28;20041;-77
2021/07/27 03:31:08;;;;;;;5.18;3.10;;;16.90;99.90;;;;;;5024286;28;20136;-76
2021/07/27 03:33:35;;;;;;;5.55;3.10;;;16.90;99.90;;;;;;5024969;28;20136;-77
2021/07/27 03:36:05;;;;;;;6.78;2.95;;;16.90;99.90;;;;;;5022846;28;20114;-78
2021/07/27 03:38:32;;;;;;;5.85;3.10;;;16.90;99.90;;;;;;5023346;28;20049;-77
2021/07/27 03:41:07;;;;;;;6.45;3.20;;;16.90;99.90;;;;;;5021597;28;20484;-78
2021/07/27 03:43:35;;;;;;;5.75;3.50;;;16.80;99.90;;;;;;5018007;28;20052;-79
2021/07/27 03:46:02;;;;;;;5.90;3.28;;;16.80;99.90;;;;;;5024206;28;20487;-76
2021/07/27 03:48:29;;;;;;;6.13;3.42;;;16.80;99.90;;;;;;5017037;28;20151;-78
2021/07/27 03:50:56;;;;;;;6.57;3.35;;;16.80;99.90;;;;;;5024602;28;20099;-80
2021/07/27 03:53:25;;;;;;;5.93;3.50;;;16.80;99.90;;;;;;5023608;28;20088;-80
2021/07/27 03:55:52;;;;;;;6.15;3.20;;;16.90;99.90;;;;;;5024243;28;20128;-78
2021/07/27 03:58:20;;;;;;;8.35;3.03;;;16.80;99.90;;;;;;5021595;28;20495;-79
2021/07/27 04:00:47;;;;;;;6.18;3.33;;;16.80;99.90;;;;;;5026454;28;20045;-80
2021/07/27 04:03:14;;;;;;;5.82;3.20;;;16.90;99.90;;;;;;5024031;28;20048;-81
2021/07/27 04:05:43;;;;;;;7.57;3.47;;;16.80;99.90;;;;;;5022875;28;20124;-79
2021/07/27 04:08:10;;;;;;;6.15;3.30;;;16.90;99.90;;;;;;5023775;28;20046;-79
2021/07/27 04:10:39;;;;;;;5.40;3.28;;;16.80;99.90;;;;;;5026292;28;20084;-79
2021/07/27 04:13:06;;;;;;;5.63;3.28;;;16.80;99.90;;;;;;5025483;28;20132;-79
2021/07/27 04:15:43;;;;;;;5.95;3.20;;;16.80;99.90;;;;;;5022753;28;20046;-79
2021/07/27 04:18:10;;;;;;;5.80;2.92;;;16.80;99.90;;;;;;5024180;28;20046;-80
2021/07/27 04:20:37;;;;;;;5.18;2.80;;;16.80;99.90;;;;;;5034424;28;20124;-80
2021/07/27 04:23:05;;;;;;;5.38;3.03;;;16.80;99.90;;;;;;5033897;28;20133;-79
2021/07/27 04:25:33;;;;;;;5.03;3.30;;;16.80;99.90;;;;;;5029741;28;20120;-80
2021/07/27 04:28:02;;;;;;;5.85;3.50;;;16.80;99.90;;;;;;5025407;28;20057;-76
2021/07/27 04:30:29;;;;;;;5.85;3.47;;;16.80;99.90;;;;;;5032122;28;20136;-78
2021/07/27 04:32:56;;;;;;;5.13;3.20;;;16.90;99.90;;;;;;5028532;28;20052;-76
2021/07/27 04:35:23;;;;;;;5.32;3.47;;;16.90;99.90;;;;;;5033509;28;20467;-77
2021/07/27 04:37:52;;;;;;;6.00;3.10;;;16.90;99.90;;;;;;5034429;28;20128;-77
2021/07/27 04:40:21;;;;;;;6.07;3.33;;;16.90;99.90;;;;;;5033398;28;20056;-77
2021/07/27 04:42:48;;;;;;;5.45;3.40;;;16.90;99.90;;;;;;5034153;28;20049;-76
2021/07/27 04:45:17;;;;;;;5.97;3.50;;;17.00;99.90;;;;;;5033915;28;20124;-77
2021/07/27 04:47:44;;;;;;;6.15;3.28;;;17.00;99.90;;;;;;5034277;28;20052;-76
2021/07/27 04:50:12;;;;;;;5.70;3.58;;;17.00;99.90;;;;;;5033973;28;20133;-78
2021/07/27 04:52:41;;;;;;;5.68;3.50;;;17.10;99.90;;;;;;5033841;28;20041;-77
2021/07/27 04:55:10;;;;;;;6.55;3.30;;;17.10;99.90;;;;;;5033954;28;20045;-76
2021/07/27 04:57:37;;;;;;;5.60;3.30;;;17.10;99.90;;;;;;5033778;28;20050;-76
2021/07/27 05:00:05;;;;;;;5.25;3.30;;;17.20;99.90;;;;;;5033690;28;20132;-79
2021/07/27 05:02:33;;;;;;;5.88;3.17;;;17.20;99.90;;;;;;5034083;28;20413;-77
2021/07/27 05:05:00;;;;;;;7.85;3.50;;;17.20;99.90;;;;;;5033942;28;20061;-78
2021/07/27 05:07:27;;;;;;;6.43;3.38;;;17.30;99.90;;;;;;5034018;28;20132;-78
2021/07/27 05:09:54;;;;;;;7.32;3.20;;;17.30;99.90;;;;;;5033671;28;20048;-76
2021/07/27 05:12:21;;;;;;;8.00;3.20;;;17.30;99.90;;;;;;5033539;28;20475;-78
2021/07/27 05:14:48;;;;;;;6.35;3.30;;;17.30;99.90;;;;;;5033681;28;20430;-76
2021/07/27 05:17:15;;;;;;;6.10;3.30;;;17.30;99.90;;;;;;5033700;28;20052;-78
2021/07/27 05:19:54;;;;;;;7.88;3.45;;;17.20;99.90;;;;;;5033346;28;20479;-77
2021/07/27 05:22:23;;;;;;;6.90;3.25;;;17.20;99.90;;;;;;5033545;28;20132;-74
2021/07/27 05:24:50;;;;;;;5.72;3.58;;;17.20;99.90;;;;;;5033368;28;20053;-79
2021/07/27 05:27:17;;;;;;;5.25;3.05;;;17.20;99.90;;;;;;5033185;28;20474;-77
2021/07/27 05:29:44;;;;;;;5.72;3.30;;;17.20;99.90;;;;;;5033784;28;20050;-77
2021/07/27 05:32:11;;;;;;;5.97;3.35;;;17.20;99.90;;;;;;5033321;28;20140;-78
2021/07/27 05:34:38;;;;;;;5.43;3.38;;;17.30;99.90;;;;;;5033195;28;20503;-78
2021/07/27 05:37:07;;;;;;;6.07;3.40;;;17.30;99.90;;;;;;5033392;28;20053;-77
2021/07/27 05:39:34;;;;;;;7.13;3.50;;;17.40;99.90;;;;;;5033866;28;20468;-78
2021/07/27 05:42:01;;;;;;;7.00;3.60;;;17.40;99.90;;;;;;5033682;28;20049;-78
2021/07/27 05:44:28;;;;;;;6.82;3.58;;;17.50;99.90;;;;;;5033188;28;20072;-78
2021/07/27 05:46:56;;;;;;;7.32;3.72;;;17.50;99.90;;;;;;5033221;28;20125;-77
2021/07/27 05:49:25;;;;;;;7.63;3.85;;;17.50;99.90;;;;;;5033221;28;20467;-77
2021/07/27 05:51:52;;;;;;;7.07;3.80;;;17.50;99.90;;;;;;5033196;28;20053;-77
2021/07/27 05:54:21;;;;;;;6.53;3.75;;;17.60;99.90;;;;;;5032964;28;20050;-78
2021/07/27 05:56:49;;;;;;;7.45;3.95;;;17.60;99.90;;;;;;5032926;28;20052;-79
2021/07/27 05:59:16;;;;;;;7.53;3.85;;;17.70;99.90;;;;;;5033113;28;20145;-76
2021/07/27 06:01:44;;;;;;;7.43;3.80;;;17.70;99.90;;;;;;5032963;28;20065;-78
2021/07/27 06:04:11;;;;;;;7.57;3.55;;;17.80;99.90;;;;;;5033006;28;20144;-77
2021/07/27 06:06:38;;;;;;;5.13;3.47;;;17.80;99.90;;;;;;5032802;28;20418;-77
2021/07/27 06:09:08;;;;;;;6.97;3.80;;;17.90;99.90;;;;;;5032826;28;20475;-75
2021/07/27 06:11:37;;;;;;;6.93;3.83;;;18.00;99.90;;;;;;5032744;28;20049;-77
2021/07/27 06:14:06;;;;;;;8.00;3.97;;;18.10;99.90;;;;;;5033017;28;20139;-77
2021/07/27 06:16:36;;;;;;;7.65;4.28;;;18.20;99.90;;;;;;5032980;28;20076;-76
2021/07/27 06:19:03;;;;;;;7.53;4.10;;;18.20;99.90;;;;;;5032622;28;20069;-77
2021/07/27 06:21:30;;;;;;;7.75;4.20;;;18.30;99.90;;;;;;5032956;28;20140;-77
2021/07/27 06:23:57;;;;;;;5.85;3.97;;;18.30;99.90;;;;;;5032902;28;20140;-77
2021/07/27 06:26:24;;;;;;;8.48;3.90;;;18.40;99.90;;;;;;5032723;28;20144;-76
2021/07/27 06:28:53;;;;;;;6.80;4.10;;;18.50;99.90;;;;;;5033079;28;20143;-77
2021/07/27 06:31:20;;;;;;;8.95;4.20;;;18.50;99.90;;;;;;5032777;28;20050;-78
2021/07/27 06:33:47;;;;;;;6.90;4.20;;;18.60;99.90;;;;;;5032644;28;20072;-79
2021/07/27 06:36:15;;;;;;;6.15;3.65;;;18.60;99.90;;;;;;5033387;28;20128;-78
2021/07/27 06:38:43;;;;;;;6.55;4.05;;;18.70;99.90;;;;;;5032860;28;20049;-75
2021/07/27 06:41:12;;;;;;;6.90;3.88;;;18.70;99.90;;;;;;5032539;28;20057;-76
2021/07/27 06:43:41;;;;;;;6.97;4.03;;;18.70;99.90;;;;;;5032946;28;20049;-78
2021/07/27 06:46:11;;;;;;;7.18;4.00;;;18.80;99.90;;;;;;5032405;28;20379;-77
2021/07/27 06:48:38;;;;;;;7.40;4.10;;;18.80;99.90;;;;;;5033164;28;20050;-77
2021/07/27 06:51:10;;;;;;;6.82;3.80;;;18.90;99.90;;;;;;5032778;28;20136;-76
2021/07/27 06:53:37;;;;;;;8.63;4.43;;;18.90;99.90;;;;;;5032877;28;20176;-75
2021/07/27 06:56:06;;;;;;;5.10;3.30;;;18.90;99.90;;;;;;5032684;28;20116;-77
2021/07/27 06:58:33;;;;;;;7.25;3.92;;;19.00;99.90;;;;;;5032780;28;20056;-77
2021/07/27 07:01:01;;;;;;;5.50;3.75;;;19.00;99.90;;;;;;5032405;28;20061;-79
2021/07/27 07:03:30;;;;;;;6.80;4.10;;;19.10;99.90;;;;;;5034197;28;20411;-78
2021/07/27 07:05:57;;;;;;;7.15;3.83;;;19.10;99.90;;;;;;5036165;28;20041;-78
2021/07/27 07:08:24;;;;;;;6.63;3.45;;;19.10;99.90;;;;;;5036009;28;20137;-78
2021/07/27 07:10:58;;;;;;;6.85;3.88;;;19.20;99.90;;;;;;5035943;28;20045;-78
2021/07/27 07:13:27;;;;;;;6.70;4.07;;;19.20;99.90;;;;;;5035944;28;20152;-75
2021/07/27 07:15:54;;;;;;;5.97;3.80;;;19.30;99.90;;;;;;5035982;28;20137;-75
2021/07/27 07:18:22;;;;;;;6.68;3.90;;;19.40;99.90;;;;;;5035893;28;20056;-75
2021/07/27 07:20:52;;;;;;;6.93;3.65;;;19.40;99.90;;;;;;5036030;28;20136;-77
2021/07/27 07:23:19;;;;;;;6.55;3.97;;;19.50;99.90;;;;;;5036052;28;20092;-78
2021/07/27 07:25:47;;;;;;;7.13;3.80;;;19.50;99.90;;;;;;5035546;28;20041;-79
2021/07/27 07:28:14;;;;;;;6.22;3.72;;;19.50;99.90;;;;;;5035619;28;20403;-77
2021/07/27 07:30:42;;;;;;;6.97;3.75;;;19.60;99.90;;;;;;5035657;28;20136;-78
2021/07/27 07:33:10;;;;;;;6.65;3.80;;;19.70;99.90;;;;;;5035865;28;20144;-78
2021/07/27 07:35:37;;;;;;;6.22;3.97;;;19.70;99.90;;;;;;5035485;28;20049;-77
2021/07/27 07:38:06;;;;;;;6.47;3.83;;;19.80;99.90;;;;;;5035430;28;20141;-77
2021/07/27 07:40:33;;;;;;;6.28;3.78;;;19.80;99.90;;;;;;5035356;28;20142;-75
2021/07/27 07:43:01;;;;;;;5.47;3.55;;;19.90;99.90;;;;;;5035436;28;20045;-77
2021/07/27 07:45:29;;;;;;;6.45;3.65;;;20.00;99.90;;;;;;5035360;28;20099;-77
2021/07/27 07:47:56;;;;;;;8.73;3.90;;;20.00;99.90;;;;;;5035191;28;20049;-77
2021/07/27 07:50:25;;;;;;;5.00;3.50;;;20.10;99.90;;;;;;5035191;28;20041;-79
2021/07/27 07:52:58;;;;;;;4.57;3.17;;;20.10;99.90;;;;;;5035183;28;20053;-77
2021/07/27 07:55:28;;;;;;;5.20;3.72;;;20.20;99.90;;;;;;5035334;28;20056;-74
2021/07/27 07:57:56;;;;;;;5.50;3.33;;;20.20;99.90;;;;;;5035096;28;20171;-76
2021/07/27 08:00:24;;;;;;;5.95;3.40;;;20.30;99.90;;;;;;5035303;28;20109;-77
2021/07/27 08:02:51;;;;;;;4.97;3.13;;;20.40;99.90;;;;;;5035770;28;20448;-76
2021/07/27 08:05:19;;;;;;;5.07;3.10;;;20.50;99.90;;;;;;5035512;28;20497;-77
2021/07/27 08:07:46;;;;;;;6.03;3.20;;;20.60;99.90;;;;;;5035801;28;20049;-77
2021/07/27 08:10:14;;;;;;;6.85;3.58;;;20.70;99.90;;;;;;5035324;28;20411;-78
2021/07/27 08:12:46;;;;;;;4.93;3.35;;;20.80;99.90;;;;;;5034849;28;20479;-76
2021/07/27 08:15:14;;;;;;;5.00;3.20;;;20.90;99.90;;;;;;5034079;28;20099;-76
2021/07/27 08:17:41;;;;;;;5.05;3.00;;;21.00;99.90;;;;;;5035133;28;20045;-75
2021/07/27 08:20:10;;;;;;;5.60;3.20;;;21.10;99.90;;;;;;5035314;28;20139;-79
2021/07/27 08:22:39;;;;;;;6.45;3.22;;;21.20;99.90;;;;;;5035065;28;20045;-76
2021/07/27 08:25:07;;;;;;;5.82;3.65;;;21.30;99.90;;;;;;5035343;28;20413;-76
2021/07/27 08:27:35;;;;;;;5.43;3.78;;;21.40;99.60;;;;;;5036637;28;20064;-77
2021/07/27 08:30:03;;;;;;;7.35;3.45;;;21.40;99.20;;;;;;5037724;28;20132;-74
2021/07/27 08:32:30;;;;;;;6.53;3.30;;;21.50;98.90;;;;;;5036779;28;20049;-77
2021/07/27 08:34:57;;;;;;;5.32;3.40;;;21.60;98.80;;;;;;5037206;28;20140;-79
2021/07/27 08:37:24;;;;;;;7.07;4.00;;;21.60;98.50;;;;;;5029266;28;20056;-79
2021/07/27 08:39:51;;;;;;;6.07;3.70;;;21.70;97.30;;;;;;5014658;28;20560;-79
2021/07/27 08:42:20;;;;;;;6.07;3.67;;;21.70;96.60;;;;;;5014825;28;20080;-79
2021/07/27 08:44:50;;;;;;;7.00;3.53;;;21.70;96.60;;;;;;5014581;28;20140;-79
2021/07/27 08:47:18;;;;;;;5.47;3.70;;;21.80;96.50;;;;;;5025797;28;20037;-79
2021/07/27 08:49:45;;;;;;;5.20;3.35;;;21.80;96.40;;;;;;5034470;28;20136;-78
2021/07/27 08:52:12;;;;;;;5.60;3.35;;;21.80;96.20;;;;;;5026844;28;20132;-78
2021/07/27 08:54:43;;;;;;;6.25;3.85;;;21.90;96.20;;;;;;5015641;28;20478;-78
2021/07/27 08:57:14;;;;;;;5.22;3.30;;;21.90;96.00;;;;;;5033264;28;20049;-79
2021/07/27 08:59:42;;;;;;;6.95;3.80;;;21.90;95.60;;;;;;5031083;28;20046;-78
2021/07/27 09:02:09;;;;;;;6.00;3.10;;;22.00;95.40;;;;;;5026422;28;20137;-78
2021/07/27 09:04:37;;;;;;;5.25;3.25;;;22.00;94.80;;;;;;5014860;28;20129;-79
2021/07/27 09:07:07;;;;;;;5.53;3.70;;;22.00;94.60;;;;;;5021038;28;20045;-79
2021/07/27 09:09:35;;;;;;;6.35;3.60;;;22.10;94.60;;;;;;5033812;28;20052;-79
2021/07/27 09:12:06;;;;;;;5.90;3.63;;;22.10;94.40;;;;;;5034407;28;20053;-80
2021/07/27 09:14:33;;;;;;;4.50;3.05;;;22.10;94.20;;;;;;5034064;28;20108;-79
2021/07/27 09:17:00;;;;;;;6.78;3.38;;;22.10;94.30;;;;;;5034303;28;20132;-80
2021/07/27 09:19:27;;;;;;;4.78;2.90;;;22.10;94.10;;;;;;5029900;28;20042;-81
2021/07/27 09:22:05;;;;;;;5.90;3.25;;;22.10;94.10;;;;;;5021081;28;20104;-80
2021/07/27 09:24:33;;;;;;;4.80;2.95;;;22.10;94.30;;;;;;5020476;28;20041;-79
2021/07/27 09:27:03;;;;;;;5.32;3.05;;;22.10;94.50;;;;;;5032699;28;20053;-80
2021/07/27 09:29:31;;;;;;;5.22;3.38;;;22.10;94.20;;;;;;5029202;28;20563;-80
2021/07/27 09:32:00;;;;;;;5.18;3.00;;;22.10;94.10;;;;;;5034220;28;20136;-78
2021/07/27 09:34:28;;;;;;;6.18;3.50;;;22.20;94.40;;;;;;5025104;28;20162;-77
2021/07/27 09:37:05;;;;;;;5.25;3.15;;;22.20;94.50;;;;;;5016823;28;20444;-79
2021/07/27 09:39:32;;;;;;;4.80;3.40;;;22.20;94.50;;;;;;5026717;28;20132;-77
2021/07/27 09:42:01;;;;;;;4.45;2.90;;;22.20;94.30;;;;;;5014020;28;20127;-81
2021/07/27 09:44:30;;;;;;;6.10;3.25;;;22.30;94.30;;;;;;5014219;28;20562;-79
2021/07/27 09:46:58;;;;;;;6.20;3.42;;;22.30;94.20;;;;;;5018782;28;20049;-79
2021/07/27 09:49:26;;;;;;;4.72;2.97;;;22.30;94.20;;;;;;5013729;28;20050;-79
2021/07/27 09:51:54;;;;;;;4.60;2.90;;;22.30;94.20;;;;;;5017248;28;20041;-80
2021/07/27 09:54:23;;;;;;;6.20;3.20;;;22.30;94.10;;;;;;5013710;28;20048;-79
2021/07/27 09:56:51;;;;;;;5.07;3.15;;;22.40;93.70;;;;;;5015367;28;20391;-79
2021/07/27 09:59:20;;;;;;;5.20;3.00;;;22.40;93.70;;;;;;5007242;28;20042;-79
2021/07/27 10:01:53;;;;;;;4.47;3.00;;;22.50;93.40;;;;;;5013797;28;20136;-79
2021/07/27 10:04:25;;;;;;;4.82;2.85;;;22.50;93.20;;;;;;5018611;28;20137;-80
2021/07/27 10:06:53;;;;;;;4.80;3.08;;;22.60;92.90;;;;;;5033127;28;20396;-78
2021/07/27 10:09:26;;;;;;;5.35;3.35;;;22.60;92.90;;;;;;5023994;28;20046;-80
2021/07/27 10:11:54;;;;;;;5.53;3.38;;;22.70;92.80;;;;;;5013471;28;20133;-80
2021/07/27 10:14:21;;;;;;;5.38;3.35;;;22.70;92.40;;;;;;5013658;28;20133;-78
2021/07/27 10:16:49;;;;;;;5.80;3.53;;;22.80;92.10;;;;;;5024386;28;20127;-77
2021/07/27 10:19:19;;;;;;;3.85;2.40;;;22.80;92.10;;;;;;5040770;28;20045;-80
2021/07/27 10:21:48;;;;;;;4.65;2.80;;;22.80;92.50;;;;;;5025974;28;20132;-77
2021/07/27 10:24:19;;;;;;;6.72;3.55;;;22.90;92.50;;;;;;5035203;28;20111;-79
2021/07/27 10:26:48;;;;;;;5.18;3.42;;;23.00;92.10;;;;;;5033538;28;20049;-78
2021/07/27 10:29:16;;;;;;;5.78;3.10;;;23.10;91.80;;;;;;5021042;28;20140;-79
2021/07/27 10:31:44;;;;;;;4.60;2.78;;;23.10;91.80;;;;;;5023392;28;20060;-78
2021/07/27 10:34:13;;;;;;;5.28;2.92;;;23.20;91.90;;;;;;5011402;28;20061;-78
2021/07/27 10:36:42;;;;;;;5.95;3.10;;;23.30;91.60;;;;;;5023496;28;20418;-79
2021/07/27 10:39:13;;;;;;;4.65;2.97;;;23.40;91.20;;;;;;5033501;28;20084;-78
2021/07/27 10:41:43;;;;;;;5.75;3.35;;;23.50;91.10;;;;;;5034090;28;20115;-77
2021/07/27 10:44:14;;;;;;;4.97;3.10;;;23.60;91.00;;;;;;5032814;28;20053;-76
2021/07/27 10:46:46;;;;;;;6.22;3.10;;;23.60;90.70;;;;;;5027662;28;20055;-75
2021/07/27 10:49:22;;;;;;;5.85;3.67;;;23.60;90.30;;;;;;5028912;28;20038;-78
2021/07/27 10:51:51;;;;;;;6.45;3.53;;;23.70;90.40;;;;;;5014206;28;20566;-77
2021/07/27 10:54:26;;;;;;;6.03;3.38;;;23.80;90.20;;;;;;5015033;28;20054;-78
2021/07/27 10:56:59;;;;;;;4.82;3.10;;;23.80;90.50;;;;;;5014274;28;20046;-78
2021/07/27 10:59:31;;;;;;;4.68;2.70;;;23.80;90.40;;;;;;5014155;28;20057;-78
2021/07/27 11:01:59;;;;;;;5.28;2.90;;;23.80;90.80;;;;;;5013726;28;20129;-78
2021/07/27 11:04:30;;;;;;;4.18;2.67;;;23.90;90.70;;;;;;5016089;28;20301;-78
2021/07/27 11:07:11;;;;;;;5.57;3.63;;;24.00;90.90;;;;;;5013952;28;20088;-76
2021/07/27 11:09:52;;;;;;;5.82;3.40;;;24.20;90.00;;;;;;5026466;28;20045;-79
2021/07/27 11:12:30;;;;;;;6.30;3.40;;;24.20;89.30;;;;;;5033469;28;20510;-77
2021/07/27 11:15:11;;;;;;;5.32;2.78;;;24.40;90.00;;;;;;5033023;28;20048;-79
2021/07/27 11:17:39;;;;;;;4.47;2.85;;;24.40;89.70;;;;;;5033201;28;20550;-78
2021/07/27 11:20:08;;;;;;;4.18;2.88;;;24.50;89.80;;;;;;5025599;28;20041;-79
2021/07/27 11:22:35;;;;;;;5.65;2.90;;;24.60;89.40;;;;;;5022247;28;20050;-78
2021/07/27 11:25:03;;;;;;;4.80;3.10;;;24.70;89.90;;;;;;5013519;28;20056;-77
2021/07/27 11:27:30;;;;;;;4.43;2.92;;;24.70;89.50;;;;;;5014013;28;20050;-79
2021/07/27 11:29:58;;;;;;;4.20;2.78;;;24.80;89.50;;;;;;5013650;28;20140;-79
2021/07/27 11:32:41;;;;;;;4.65;2.63;;;24.90;89.50;;;;;;5029322;28;20120;-80
2021/07/27 11:35:10;;;;;;;5.10;3.20;;;25.00;89.40;;;;;;5033699;28;20053;-81
2021/07/27 11:37:37;;;;;;;4.97;3.10;;;25.00;89.50;;;;;;5033020;28;20298;-78
2021/07/27 11:40:05;;;;;;;4.55;3.00;;;25.10;89.70;;;;;;5032677;28;20063;-80
2021/07/27 11:42:35;;;;;;;5.43;3.00;;;25.30;89.40;;;;;;5033023;28;20046;-78
2021/07/27 11:45:04;;;;;;;5.07;3.13;;;25.40;88.60;;;;;;5025961;28;20046;-84
2021/07/27 11:47:45;;;;;;;4.55;3.08;;;25.50;87.50;;;;;;5013313;28;20100;-80
2021/07/27 11:50:26;;;;;;;5.63;2.90;;;25.60;86.90;;;;;;5014242;28;20046;-80
2021/07/27 11:52:58;;;;;;;5.18;3.03;;;25.70;85.10;;;;;;5032497;28;20049;-80
2021/07/27 11:55:30;;;;;;;4.13;2.65;;;25.80;84.80;;;;;;5032837;28;20057;-79
2021/07/27 11:57:57;;;;;;;4.15;2.50;;;25.90;84.50;;;;;;5029493;28;20128;-78
2021/07/27 12:00:24;;;;;;;5.85;3.00;;;25.90;83.80;;;;;;5031024;28;20053;-78
2021/07/27 12:02:53;;;;;;;4.75;2.97;;;26.00;83.30;;;;;;5030258;28;20048;-78
2021/07/27 12:05:20;;;;;;;4.90;3.00;;;26.10;82.00;;;;;;5032905;28;20149;-78
2021/07/27 12:07:47;;;;;;;4.30;2.85;;;26.10;79.80;;;;;;5024211;28;20129;-78
2021/07/27 12:10:16;;;;;;;4.30;2.90;;;26.10;78.30;;;;;;5025923;28;20486;-77
2021/07/27 12:12:43;;;;;;;5.03;3.10;;;26.00;78.10;;;;;;5032322;28;20049;-77
2021/07/27 12:15:13;;;;;;;4.65;2.72;;;26.00;76.80;;;;;;5012367;28;20538;-78
2021/07/27 12:17:41;;;;;;;4.40;2.90;;;25.90;77.80;;;;;;5012806;28;20049;-78
2021/07/27 12:20:13;;;;;;;4.13;2.90;;;25.90;79.10;;;;;;5012282;28;20054;-78
2021/07/27 12:22:40;;;;;;;5.60;3.20;;;25.90;78.70;;;;;;5012543;28;20522;-77
2021/07/27 12:25:09;;;;;;;4.53;2.75;;;25.90;79.00;;;;;;5014509;28;20372;-75
2021/07/27 12:27:37;;;;;;;4.72;2.90;;;25.90;79.70;;;;;;5031974;28;20072;-78
2021/07/27 12:30:05;;;;;;;5.30;3.33;;;25.90;80.50;;;;;;5031918;28;20479;-77
2021/07/27 12:32:32;;;;;;;4.60;2.90;;;25.90;80.80;;;;;;5031731;28;20056;-77
2021/07/27 12:34:59;;;;;;;4.63;2.83;;;25.90;81.70;;;;;;5031871;28;20402;-77
2021/07/27 12:37:28;;;;;;;4.70;3.10;;;25.90;82.60;;;;;;5032067;28;20045;-75
2021/07/27 12:39:55;;;;;;;4.40;2.88;;;26.00;82.40;;;;;;5032491;28;20049;-76
2021/07/27 12:42:22;;;;;;;4.63;3.17;;;26.00;82.90;;;;;;5031950;28;20045;-78
2021/07/27 12:44:49;;;;;;;5.55;3.50;;;26.10;82.90;;;;;;5028019;28;20045;-78
2021/07/27 12:47:16;;;;;;;4.95;3.03;;;26.20;82.00;;;;;;5021982;28;20487;-78
2021/07/27 12:49:43;;;;;;;5.03;3.17;;;26.30;82.10;;;;;;5031693;28;20052;-77
2021/07/27 12:52:11;;;;;;;4.32;2.90;;;26.40;83.00;;;;;;5031245;28;20133;-76
2021/07/27 12:54:39;;;;;;;5.70;3.00;;;26.50;83.70;;;;;;5032277;28;20068;-77
2021/07/27 12:57:06;;;;;;;4.30;2.85;;;26.70;83.70;;;;;;5031185;28;20061;-76
2021/07/27 12:59:34;;;;;;;4.20;2.80;;;26.80;83.80;;;;;;5039717;28;20109;-77
2021/07/27 13:02:01;;;;;;;4.47;2.75;;;26.90;82.80;;;;;;5035380;28;20045;-79
2021/07/27 13:04:28;;;;;;;4.68;3.00;;;26.90;81.40;;;;;;5030427;28;20043;-78
2021/07/27 13:06:55;;;;;;;5.20;3.08;;;26.90;81.40;;;;;;5027096;28;20068;-78
2021/07/27 13:09:22;;;;;;;4.47;3.00;;;26.90;82.30;;;;;;5023629;28;20052;-79
2021/07/27 13:11:50;;;;;;;4.72;3.08;;;27.10;82.10;;;;;;5031589;28;20133;-77
2021/07/27 13:14:17;;;;;;;5.30;3.10;;;27.20;81.50;;;;;;5012914;28;20138;-78